sensor_id;sensor_type;location;lat;lon;timestamp;temperature;humidity
21261;DHT22;10788;47.930;9.766;2023-02-02T00:00:43;2.90;99.90
21261;DHT22;10788;47.930;9.766;2023-02-02T00:03:09;2.90;99.90
21261;DHT22;10788;47.930;9.766;2023-02-02T00:05:35;2.90;99.90
21261;DHT22;10788;47.930;9.766;2023-02-02T00:08:01;2.90;99.90
21261;DHT22;10788;47.930;9.766;2023-02-02T00:10:27;2.90;99.90
21261;DHT22;10788;47.930;9.766;2023-02-02T00:12:53;2.90;99.90
21261;DHT22;10788;47.930;9.766;2023-02-02T00:15:22;2.90;99.90
21261;DHT22;10788;47.930;9.766;2023-02-02T00:17:48;2.90;99.90
21261;DHT22;10788;47.930;9.766;2023-02-02T00:20:14;2.90;99.90
21261;DHT22;10788;47.930;9.766;2023-02-02T00:22:40;2.80;99.90
21261;DHT22;10788;47.930;9.766;2023-02-02T00:25:06;2.90;99.90
21261;DHT22;10788;47.930;9.766;2023-02-02T00:27:32;2.80;99.90
21261;DHT22;10788;47.930;9.766;2023-02-02T00:29:57;2.90;99.90
21261;DHT22;10788;47.930;9.766;2023-02-02T00:32:23;2.90;99.90
21261;DHT22;10788;47.930;9.766;2023-02-02T00:34:48;2.80;99.90
21261;DHT22;10788;47.930;9.766;2023-02-02T00:37:14;2.80;99.90
21261;DHT22;10788;47.930;9.766;2023-02-02T00:39:39;2.80;99.90
21261;DHT22;10788;47.930;9.766;2023-02-02T00:42:05;2.80;99.90
21261;DHT22;10788;47.930;9.766;2023-02-02T00:44:30;2.80;99.90
21261;DHT22;10788;47.930;9.766;2023-02-02T00:47:15;2.80;99.90
21261;DHT22;10788;47.930;9.766;2023-02-02T00:49:41;2.80;99.90
21261;DHT22;10788;47.930;9.766;2023-02-02T00:52:06;2.80;99.90
21261;DHT22;10788;47.930;9.766;2023-02-02T00:54:32;2.80;99.90
21261;DHT22;10788;47.930;9.766;2023-02-02T00:56:57;2.80;99.90
21261;DHT22;10788;47.930;9.766;2023-02-02T00:59:23;2.90;99.90
21261;DHT22;10788;47.930;9.766;2023-02-02T01:01:49;2.90;99.90
21261;DHT22;10788;47.930;9.766;2023-02-02T01:04:14;2.80;99.90
21261;DHT22;10788;47.930;9.766;2023-02-02T01:06:40;2.80;99.90
21261;DHT22;10788;47.930;9.766;2023-02-02T01:09:06;2.90;99.90
21261;DHT22;10788;47.930;9.766;2023-02-02T01:11:32;2.90;99.90
21261;DHT22;10788;47.930;9.766;2023-02-02T01:13:57;2.90;99.90
21261;DHT22;10788;47.930;9.766;2023-02-02T01:16:23;2.80;99.90
21261;DHT22;10788;47.930;9.766;2023-02-02T01:18:50;3.00;99.90
21261;DHT22;10788;47.930;9.766;2023-02-02T01:21:16;2.80;99.90
21261;DHT22;10788;47.930;9.766;2023-02-02T01:23:42;2.80;99.90
21261;DHT22;10788;47.930;9.766;2023-02-02T01:26:09;2.90;99.90
21261;DHT22;10788;47.930;9.766;2023-02-02T01:28:36;2.90;99.90
21261;DHT22;10788;47.930;9.766;2023-02-02T01:33:32;2.90;99.90
21261;DHT22;10788;47.930;9.766;2023-02-02T01:35:57;2.90;99.90
21261;DHT22;10788;47.930;9.766;2023-02-02T01:38:23;2.80;99.90
21261;DHT22;10788;47.930;9.766;2023-02-02T01:40:54;2.80;99.90
21261;DHT22;10788;47.930;9.766;2023-02-02T01:45:47;2.80;99.90
21261;DHT22;10788;47.930;9.766;2023-02-02T01:48:13;2.80;99.90
21261;DHT22;10788;47.930;9.766;2023-02-02T01:50:39;2.80;99.90
21261;DHT22;10788;47.930;9.766;2023-02-02T01:53:05;2.80;99.90
21261;DHT22;10788;47.930;9.766;2023-02-02T01:55:32;2.80;99.90
21261;DHT22;10788;47.930;9.766;2023-02-02T01:58:10;2.80;99.90
21261;DHT22;10788;47.930;9.766;2023-02-02T02:00:39;2.90;99.90
21261;DHT22;10788;47.930;9.766;2023-02-02T02:03:12;2.90;99.90
21261;DHT22;10788;47.930;9.766;2023-02-02T02:05:52;2.90;99.90
21261;DHT22;10788;47.930;9.766;2023-02-02T02:08:22;2.90;99.90
21261;DHT22;10788;47.930;9.766;2023-02-02T02:10:48;2.90;99.90
21261;DHT22;10788;47.930;9.766;2023-02-02T02:13:15;2.90;99.90
21261;DHT22;10788;47.930;9.766;2023-02-02T02:15:50;2.90;99.90
21261;DHT22;10788;47.930;9.766;2023-02-02T02:36:50;2.80;99.90
21261;DHT22;10788;47.930;9.766;2023-02-02T02:39:33;2.80;99.90
21261;DHT22;10788;47.930;9.766;2023-02-02T02:42:09;2.80;99.90
21261;DHT22;10788;47.930;9.766;2023-02-02T02:44:36;2.80;99.90
21261;DHT22;10788;47.930;9.766;2023-02-02T02:47:03;2.90;99.90
21261;DHT22;10788;47.930;9.766;2023-02-02T02:49:28;2.80;99.90
21261;DHT22;10788;47.930;9.766;2023-02-02T02:51:55;2.90;99.90
21261;DHT22;10788;47.930;9.766;2023-02-02T03:07:41;2.80;99.90
21261;DHT22;10788;47.930;9.766;2023-02-02T03:10:09;2.80;99.90
21261;DHT22;10788;47.930;9.766;2023-02-02T03:12:43;2.80;99.90
21261;DHT22;10788;47.930;9.766;2023-02-02T03:15:10;2.80;99.90
21261;DHT22;10788;47.930;9.766;2023-02-02T03:17:35;2.90;99.90
21261;DHT22;10788;47.930;9.766;2023-02-02T03:20:01;2.80;99.90
21261;DHT22;10788;47.930;9.766;2023-02-02T03:22:27;2.80;99.90
21261;DHT22;10788;47.930;9.766;2023-02-02T03:24:52;2.80;99.90
21261;DHT22;10788;47.930;9.766;2023-02-02T03:27:18;2.80;99.90
21261;DHT22;10788;47.930;9.766;2023-02-02T03:29:43;2.80;99.90
21261;DHT22;10788;47.930;9.766;2023-02-02T03:32:09;2.80;99.90
21261;DHT22;10788;47.930;9.766;2023-02-02T03:34:35;2.90;99.90
21261;DHT22;10788;47.930;9.766;2023-02-02T03:37:00;2.80;99.90
21261;DHT22;10788;47.930;9.766;2023-02-02T03:39:26;2.80;99.90
21261;DHT22;10788;47.930;9.766;2023-02-02T03:41:51;2.80;99.90
21261;DHT22;10788;47.930;9.766;2023-02-02T03:44:17;2.80;99.90
21261;DHT22;10788;47.930;9.766;2023-02-02T03:46:42;2.80;99.90
21261;DHT22;10788;47.930;9.766;2023-02-02T03:49:08;2.90;99.90
21261;DHT22;10788;47.930;9.766;2023-02-02T03:51:33;2.90;99.90
21261;DHT22;10788;47.930;9.766;2023-02-02T03:53:59;2.80;99.90
21261;DHT22;10788;47.930;9.766;2023-02-02T03:56:25;2.80;99.90
21261;DHT22;10788;47.930;9.766;2023-02-02T03:58:50;2.80;99.90
21261;DHT22;10788;47.930;9.766;2023-02-02T04:01:16;2.80;99.90
21261;DHT22;10788;47.930;9.766;2023-02-02T04:03:41;2.80;99.90
21261;DHT22;10788;47.930;9.766;2023-02-02T04:06:07;2.80;99.90
21261;DHT22;10788;47.930;9.766;2023-02-02T04:08:33;2.80;99.90
21261;DHT22;10788;47.930;9.766;2023-02-02T04:10:59;2.80;99.90
21261;DHT22;10788;47.930;9.766;2023-02-02T04:13:24;2.80;99.90
21261;DHT22;10788;47.930;9.766;2023-02-02T04:16:00;2.80;99.90
21261;DHT22;10788;47.930;9.766;2023-02-02T04:18:26;2.80;99.90
21261;DHT22;10788;47.930;9.766;2023-02-02T04:20:59;2.80;99.90
21261;DHT22;10788;47.930;9.766;2023-02-02T04:23:25;2.80;99.90
21261;DHT22;10788;47.930;9.766;2023-02-02T04:25:51;2.70;99.90
21261;DHT22;10788;47.930;9.766;2023-02-02T04:28:17;2.70;99.90
21261;DHT22;10788;47.930;9.766;2023-02-02T04:30:43;2.70;99.90
21261;DHT22;10788;47.930;9.766;2023-02-02T04:33:08;2.60;99.90
21261;DHT22;10788;47.930;9.766;2023-02-02T04:35:34;2.60;99.90
21261;DHT22;10788;47.930;9.766;2023-02-02T04:38:00;2.60;99.90
21261;DHT22;10788;47.930;9.766;2023-02-02T04:40:25;2.50;99.90
21261;DHT22;10788;47.930;9.766;2023-02-02T04:42:51;2.60;99.90
21261;DHT22;10788;47.930;9.766;2023-02-02T04:45:17;2.60;99.90
21261;DHT22;10788;47.930;9.766;2023-02-02T04:47:42;2.50;99.90
21261;DHT22;10788;47.930;9.766;2023-02-02T04:50:08;2.50;99.90
21261;DHT22;10788;47.930;9.766;2023-02-02T04:52:34;2.50;99.90
21261;DHT22;10788;47.930;9.766;2023-02-02T04:55:00;2.50;99.90
21261;DHT22;10788;47.930;9.766;2023-02-02T04:57:26;2.50;99.90
21261;DHT22;10788;47.930;9.766;2023-02-02T04:59:51;2.50;99.90
21261;DHT22;10788;47.930;9.766;2023-02-02T05:02:17;2.40;99.90
21261;DHT22;10788;47.930;9.766;2023-02-02T05:04:43;2.40;99.90
21261;DHT22;10788;47.930;9.766;2023-02-02T05:07:10;2.40;99.90
21261;DHT22;10788;47.930;9.766;2023-02-02T05:09:35;2.40;99.90
21261;DHT22;10788;47.930;9.766;2023-02-02T05:12:01;2.50;99.90
21261;DHT22;10788;47.930;9.766;2023-02-02T05:14:26;2.40;99.90
21261;DHT22;10788;47.930;9.766;2023-02-02T05:16:52;2.40;99.90
21261;DHT22;10788;47.930;9.766;2023-02-02T05:19:18;2.40;99.90
21261;DHT22;10788;47.930;9.766;2023-02-02T05:21:44;2.40;99.90
21261;DHT22;10788;47.930;9.766;2023-02-02T05:24:11;2.50;99.90
21261;DHT22;10788;47.930;9.766;2023-02-02T05:26:37;2.50;99.90
21261;DHT22;10788;47.930;9.766;2023-02-02T05:29:03;2.50;99.90
21261;DHT22;10788;47.930;9.766;2023-02-02T05:31:31;2.50;99.90
21261;DHT22;10788;47.930;9.766;2023-02-02T05:33:56;2.50;99.90
21261;DHT22;10788;47.930;9.766;2023-02-02T05:36:22;2.40;99.90
21261;DHT22;10788;47.930;9.766;2023-02-02T05:38:48;2.40;99.90
21261;DHT22;10788;47.930;9.766;2023-02-02T05:41:13;2.50;99.90
21261;DHT22;10788;47.930;9.766;2023-02-02T05:43:39;2.50;99.90
21261;DHT22;10788;47.930;9.766;2023-02-02T05:46:04;2.50;99.90
21261;DHT22;10788;47.930;9.766;2023-02-02T05:48:30;2.50;99.90
21261;DHT22;10788;47.930;9.766;2023-02-02T05:51:14;2.50;99.90
21261;DHT22;10788;47.930;9.766;2023-02-02T05:53:41;2.50;99.90
21261;DHT22;10788;47.930;9.766;2023-02-02T05:56:09;2.50;99.90
21261;DHT22;10788;47.930;9.766;2023-02-02T05:58:35;2.50;99.90
21261;DHT22;10788;47.930;9.766;2023-02-02T06:01:01;2.50;99.90
21261;DHT22;10788;47.930;9.766;2023-02-02T06:03:26;2.50;99.90
21261;DHT22;10788;47.930;9.766;2023-02-02T06:05:52;2.50;99.90
21261;DHT22;10788;47.930;9.766;2023-02-02T06:08:18;2.50;99.90
21261;DHT22;10788;47.930;9.766;2023-02-02T06:10:43;2.50;99.90
21261;DHT22;10788;47.930;9.766;2023-02-02T06:13:09;2.50;99.90
21261;DHT22;10788;47.930;9.766;2023-02-02T06:15:35;2.50;99.90
21261;DHT22;10788;47.930;9.766;2023-02-02T06:18:01;2.60;99.90
21261;DHT22;10788;47.930;9.766;2023-02-02T06:20:27;2.60;99.90
21261;DHT22;10788;47.930;9.766;2023-02-02T06:22:53;2.60;99.90
21261;DHT22;10788;47.930;9.766;2023-02-02T06:25:19;2.50;99.90
21261;DHT22;10788;47.930;9.766;2023-02-02T06:27:44;2.60;99.90
21261;DHT22;10788;47.930;9.766;2023-02-02T06:30:11;2.60;99.90
21261;DHT22;10788;47.930;9.766;2023-02-02T06:32:37;2.60;99.90
21261;DHT22;10788;47.930;9.766;2023-02-02T06:35:04;2.60;99.90
21261;DHT22;10788;47.930;9.766;2023-02-02T06:37:30;2.60;99.90
21261;DHT22;10788;47.930;9.766;2023-02-02T06:39:55;2.60;99.90
21261;DHT22;10788;47.930;9.766;2023-02-02T06:42:21;2.60;99.90
21261;DHT22;10788;47.930;9.766;2023-02-02T06:44:46;2.60;99.90
21261;DHT22;10788;47.930;9.766;2023-02-02T06:47:12;2.60;99.90
21261;DHT22;10788;47.930;9.766;2023-02-02T06:49:38;2.70;99.90
21261;DHT22;10788;47.930;9.766;2023-02-02T06:52:03;2.70;99.90
21261;DHT22;10788;47.930;9.766;2023-02-02T06:54:29;2.60;99.90
21261;DHT22;10788;47.930;9.766;2023-02-02T06:56:55;2.60;99.90
21261;DHT22;10788;47.930;9.766;2023-02-02T06:59:20;2.70;99.90
21261;DHT22;10788;47.930;9.766;2023-02-02T07:01:48;2.70;99.90
21261;DHT22;10788;47.930;9.766;2023-02-02T07:04:16;2.70;99.90
21261;DHT22;10788;47.930;9.766;2023-02-02T07:06:42;2.70;99.90
21261;DHT22;10788;47.930;9.766;2023-02-02T07:09:07;2.70;99.90
21261;DHT22;10788;47.930;9.766;2023-02-02T07:11:33;2.70;99.90
21261;DHT22;10788;47.930;9.766;2023-02-02T07:14:01;2.70;99.90
21261;DHT22;10788;47.930;9.766;2023-02-02T07:16:26;2.70;99.90
21261;DHT22;10788;47.930;9.766;2023-02-02T07:18:52;2.80;99.90
21261;DHT22;10788;47.930;9.766;2023-02-02T07:21:23;2.80;99.90
21261;DHT22;10788;47.930;9.766;2023-02-02T07:23:49;2.80;99.90
21261;DHT22;10788;47.930;9.766;2023-02-02T07:26:16;2.80;99.90
21261;DHT22;10788;47.930;9.766;2023-02-02T07:28:43;2.80;99.90
21261;DHT22;10788;47.930;9.766;2023-02-02T07:31:23;2.80;99.90
21261;DHT22;10788;47.930;9.766;2023-02-02T07:33:50;2.80;99.90
21261;DHT22;10788;47.930;9.766;2023-02-02T07:36:18;2.80;99.90
21261;DHT22;10788;47.930;9.766;2023-02-02T07:38:45;2.80;99.90
21261;DHT22;10788;47.930;9.766;2023-02-02T07:41:12;2.80;99.90
21261;DHT22;10788;47.930;9.766;2023-02-02T07:43:38;2.90;99.90
21261;DHT22;10788;47.930;9.766;2023-02-02T07:46:05;2.90;99.90
21261;DHT22;10788;47.930;9.766;2023-02-02T07:48:33;2.80;99.90
21261;DHT22;10788;47.930;9.766;2023-02-02T07:51:03;2.80;99.90
21261;DHT22;10788;47.930;9.766;2023-02-02T07:53:30;2.90;99.90
21261;DHT22;10788;47.930;9.766;2023-02-02T07:56:12;3.00;99.90
21261;DHT22;10788;47.930;9.766;2023-02-02T07:58:38;3.00;99.90
21261;DHT22;10788;47.930;9.766;2023-02-02T08:01:06;3.00;99.90
21261;DHT22;10788;47.930;9.766;2023-02-02T08:03:33;3.00;99.90
21261;DHT22;10788;47.930;9.766;2023-02-02T08:05:59;2.90;99.90
21261;DHT22;10788;47.930;9.766;2023-02-02T08:08:25;3.00;99.90
21261;DHT22;10788;47.930;9.766;2023-02-02T08:10:52;2.90;99.90
21261;DHT22;10788;47.930;9.766;2023-02-02T08:13:18;2.90;99.90
21261;DHT22;10788;47.930;9.766;2023-02-02T08:15:43;2.90;99.90
21261;DHT22;10788;47.930;9.766;2023-02-02T08:18:09;2.80;99.90
21261;DHT22;10788;47.930;9.766;2023-02-02T08:20:35;2.80;99.90
21261;DHT22;10788;47.930;9.766;2023-02-02T08:23:00;2.90;99.90
21261;DHT22;10788;47.930;9.766;2023-02-02T08:25:26;2.90;99.90
21261;DHT22;10788;47.930;9.766;2023-02-02T08:27:53;2.80;99.90
21261;DHT22;10788;47.930;9.766;2023-02-02T08:30:19;2.90;99.90
21261;DHT22;10788;47.930;9.766;2023-02-02T08:32:45;2.90;99.90
21261;DHT22;10788;47.930;9.766;2023-02-02T08:35:10;2.90;99.90
21261;DHT22;10788;47.930;9.766;2023-02-02T08:37:37;2.90;99.90
21261;DHT22;10788;47.930;9.766;2023-02-02T08:40:03;2.90;99.90
21261;DHT22;10788;47.930;9.766;2023-02-02T08:42:28;2.90;99.90
21261;DHT22;10788;47.930;9.766;2023-02-02T08:44:54;2.90;99.90
21261;DHT22;10788;47.930;9.766;2023-02-02T08:47:20;2.90;99.90
21261;DHT22;10788;47.930;9.766;2023-02-02T08:49:46;3.00;99.90
21261;DHT22;10788;47.930;9.766;2023-02-02T08:52:11;3.00;99.90
21261;DHT22;10788;47.930;9.766;2023-02-02T08:54:37;3.00;99.90
21261;DHT22;10788;47.930;9.766;2023-02-02T08:57:02;2.90;99.90
21261;DHT22;10788;47.930;9.766;2023-02-02T08:59:28;3.00;99.90
21261;DHT22;10788;47.930;9.766;2023-02-02T09:01:53;3.10;99.90
21261;DHT22;10788;47.930;9.766;2023-02-02T09:04:20;3.10;99.90
21261;DHT22;10788;47.930;9.766;2023-02-02T09:06:45;3.10;99.90
21261;DHT22;10788;47.930;9.766;2023-02-02T09:09:15;3.10;99.90
21261;DHT22;10788;47.930;9.766;2023-02-02T09:11:41;3.10;99.90
21261;DHT22;10788;47.930;9.766;2023-02-02T09:14:09;3.10;99.90
21261;DHT22;10788;47.930;9.766;2023-02-02T09:16:37;3.10;99.90
21261;DHT22;10788;47.930;9.766;2023-02-02T09:19:03;3.10;99.90
21261;DHT22;10788;47.930;9.766;2023-02-02T09:21:29;3.20;99.90
21261;DHT22;10788;47.930;9.766;2023-02-02T09:23:55;3.10;99.90
21261;DHT22;10788;47.930;9.766;2023-02-02T09:26:26;3.10;99.90
21261;DHT22;10788;47.930;9.766;2023-02-02T09:28:54;3.10;99.90
21261;DHT22;10788;47.930;9.766;2023-02-02T09:31:21;3.10;99.90
21261;DHT22;10788;47.930;9.766;2023-02-02T09:33:47;3.10;99.90
21261;DHT22;10788;47.930;9.766;2023-02-02T09:36:15;3.10;99.90
21261;DHT22;10788;47.930;9.766;2023-02-02T09:38:42;3.10;99.90
21261;DHT22;10788;47.930;9.766;2023-02-02T09:44:07;3.20;99.90
21261;DHT22;10788;47.930;9.766;2023-02-02T09:49:41;3.20;99.90
21261;DHT22;10788;47.930;9.766;2023-02-02T09:52:17;3.20;99.90
21261;DHT22;10788;47.930;9.766;2023-02-02T09:54:48;3.30;99.90
21261;DHT22;10788;47.930;9.766;2023-02-02T09:57:22;3.30;99.90
21261;DHT22;10788;47.930;9.766;2023-02-02T09:59:51;3.30;99.90
21261;DHT22;10788;47.930;9.766;2023-02-02T10:02:27;3.40;99.90
21261;DHT22;10788;47.930;9.766;2023-02-02T10:05:01;3.40;99.90
21261;DHT22;10788;47.930;9.766;2023-02-02T10:07:37;3.40;99.90
21261;DHT22;10788;47.930;9.766;2023-02-02T10:16:06;3.30;99.90
21261;DHT22;10788;47.930;9.766;2023-02-02T10:18:56;3.40;99.90
21261;DHT22;10788;47.930;9.766;2023-02-02T10:24:02;3.30;99.90
21261;DHT22;10788;47.930;9.766;2023-02-02T10:26:38;3.40;99.90
21261;DHT22;10788;47.930;9.766;2023-02-02T10:32:04;3.40;99.90
21261;DHT22;10788;47.930;9.766;2023-02-02T10:45:17;3.40;99.90
21261;DHT22;10788;47.930;9.766;2023-02-02T10:47:43;3.40;99.90
21261;DHT22;10788;47.930;9.766;2023-02-02T10:53:00;3.40;99.90
21261;DHT22;10788;47.930;9.766;2023-02-02T10:55:55;3.40;99.90
21261;DHT22;10788;47.930;9.766;2023-02-02T11:01:07;3.40;99.90
21261;DHT22;10788;47.930;9.766;2023-02-02T11:03:35;3.50;99.90
21261;DHT22;10788;47.930;9.766;2023-02-02T11:06:03;3.50;99.90
21261;DHT22;10788;47.930;9.766;2023-02-02T11:08:51;3.50;99.90
21261;DHT22;10788;47.930;9.766;2023-02-02T11:11:22;3.50;99.90
21261;DHT22;10788;47.930;9.766;2023-02-02T11:16:26;3.60;99.90
21261;DHT22;10788;47.930;9.766;2023-02-02T11:18:52;3.60;99.90
21261;DHT22;10788;47.930;9.766;2023-02-02T11:21:30;3.60;99.90
21261;DHT22;10788;47.930;9.766;2023-02-02T11:24:02;3.60;99.90
21261;DHT22;10788;47.930;9.766;2023-02-02T11:29:30;3.60;99.90
21261;DHT22;10788;47.930;9.766;2023-02-02T11:31:56;3.60;99.90
21261;DHT22;10788;47.930;9.766;2023-02-02T11:34:25;3.60;99.90
21261;DHT22;10788;47.930;9.766;2023-02-02T11:37:14;3.60;99.90
21261;DHT22;10788;47.930;9.766;2023-02-02T11:39:44;3.60;99.90
21261;DHT22;10788;47.930;9.766;2023-02-02T11:44:45;3.70;99.90
21261;DHT22;10788;47.930;9.766;2023-02-02T11:47:26;3.70;99.90
21261;DHT22;10788;47.930;9.766;2023-02-02T11:49:53;3.60;99.90
21261;DHT22;10788;47.930;9.766;2023-02-02T11:52:21;3.70;99.90
21261;DHT22;10788;47.930;9.766;2023-02-02T11:54:50;3.70;99.90
21261;DHT22;10788;47.930;9.766;2023-02-02T11:57:21;3.80;99.90
21261;DHT22;10788;47.930;9.766;2023-02-02T11:59:49;3.80;99.90
21261;DHT22;10788;47.930;9.766;2023-02-02T12:04:45;3.80;99.90
21261;DHT22;10788;47.930;9.766;2023-02-02T12:07:31;3.80;99.90
21261;DHT22;10788;47.930;9.766;2023-02-02T12:10:12;3.80;99.90
21261;DHT22;10788;47.930;9.766;2023-02-02T12:17:45;3.80;99.90
21261;DHT22;10788;47.930;9.766;2023-02-02T12:23:00;3.80;99.90
21261;DHT22;10788;47.930;9.766;2023-02-02T12:26:04;3.90;99.90
21261;DHT22;10788;47.930;9.766;2023-02-02T12:31:17;4.00;99.90
21261;DHT22;10788;47.930;9.766;2023-02-02T12:37:31;3.90;99.90
21261;DHT22;10788;47.930;9.766;2023-02-02T12:48:23;3.90;99.90
21261;DHT22;10788;47.930;9.766;2023-02-02T12:56:35;3.90;99.90
21261;DHT22;10788;47.930;9.766;2023-02-02T13:07:35;4.00;99.90
21261;DHT22;10788;47.930;9.766;2023-02-02T13:10:20;4.00;99.90
21261;DHT22;10788;47.930;9.766;2023-02-02T13:12:52;3.90;99.90
21261;DHT22;10788;47.930;9.766;2023-02-02T13:15:21;3.90;99.90
21261;DHT22;10788;47.930;9.766;2023-02-02T13:17:55;4.00;99.90
21261;DHT22;10788;47.930;9.766;2023-02-02T13:22:57;4.10;99.90
21261;DHT22;10788;47.930;9.766;2023-02-02T13:25:28;4.00;99.90
21261;DHT22;10788;47.930;9.766;2023-02-02T13:27:57;4.00;99.90
21261;DHT22;10788;47.930;9.766;2023-02-02T13:32:53;4.00;99.90
21261;DHT22;10788;47.930;9.766;2023-02-02T13:35:30;4.00;99.90
21261;DHT22;10788;47.930;9.766;2023-02-02T13:38:06;4.00;99.90
21261;DHT22;10788;47.930;9.766;2023-02-02T13:40:38;4.00;99.90
21261;DHT22;10788;47.930;9.766;2023-02-02T13:43:20;4.00;99.90
21261;DHT22;10788;47.930;9.766;2023-02-02T13:46:17;4.10;99.90
21261;DHT22;10788;47.930;9.766;2023-02-02T13:53:57;4.10;99.90
21261;DHT22;10788;47.930;9.766;2023-02-02T14:01:44;4.00;99.90
21261;DHT22;10788;47.930;9.766;2023-02-02T14:04:21;4.00;99.90
21261;DHT22;10788;47.930;9.766;2023-02-02T14:06:57;4.00;99.90
21261;DHT22;10788;47.930;9.766;2023-02-02T14:09:26;4.00;99.90
21261;DHT22;10788;47.930;9.766;2023-02-02T14:12:06;4.10;99.90
21261;DHT22;10788;47.930;9.766;2023-02-02T14:14:35;4.10;99.90
21261;DHT22;10788;47.930;9.766;2023-02-02T14:19:49;4.20;99.90
21261;DHT22;10788;47.930;9.766;2023-02-02T14:22:16;4.10;99.90
21261;DHT22;10788;47.930;9.766;2023-02-02T14:24:49;4.10;99.90
21261;DHT22;10788;47.930;9.766;2023-02-02T14:40:31;4.20;99.90
21261;DHT22;10788;47.930;9.766;2023-02-02T14:48:41;4.30;99.90
21261;DHT22;10788;47.930;9.766;2023-02-02T14:51:19;4.20;99.90
21261;DHT22;10788;47.930;9.766;2023-02-02T14:53:48;4.20;99.90
21261;DHT22;10788;47.930;9.766;2023-02-02T14:56:15;4.20;99.90
21261;DHT22;10788;47.930;9.766;2023-02-02T15:01:24;4.10;99.90
21261;DHT22;10788;47.930;9.766;2023-02-02T15:04:22;4.00;99.90
21261;DHT22;10788;47.930;9.766;2023-02-02T15:06:49;4.10;99.90
21261;DHT22;10788;47.930;9.766;2023-02-02T15:23:46;4.10;99.90
21261;DHT22;10788;47.930;9.766;2023-02-02T15:25:58;4.20;99.90
21261;DHT22;10788;47.930;9.766;2023-02-02T15:33:44;4.10;99.90
21261;DHT22;10788;47.930;9.766;2023-02-02T15:36:26;4.20;99.90
21261;DHT22;10788;47.930;9.766;2023-02-02T15:38:55;4.10;99.90
21261;DHT22;10788;47.930;9.766;2023-02-02T15:41:30;4.10;99.90
21261;DHT22;10788;47.930;9.766;2023-02-02T15:44:00;4.10;99.90
21261;DHT22;10788;47.930;9.766;2023-02-02T15:46:30;4.10;99.90
21261;DHT22;10788;47.930;9.766;2023-02-02T15:51:52;4.10;99.90
21261;DHT22;10788;47.930;9.766;2023-02-02T15:56:52;4.10;99.90
21261;DHT22;10788;47.930;9.766;2023-02-02T15:59:22;4.20;99.90
21261;DHT22;10788;47.930;9.766;2023-02-02T16:04:42;4.10;99.90
21261;DHT22;10788;47.930;9.766;2023-02-02T16:07:12;4.20;99.90
21261;DHT22;10788;47.930;9.766;2023-02-02T16:09:39;4.20;99.90
21261;DHT22;10788;47.930;9.766;2023-02-02T16:12:16;4.10;99.90
21261;DHT22;10788;47.930;9.766;2023-02-02T16:14:50;4.20;99.90
21261;DHT22;10788;47.930;9.766;2023-02-02T16:17:24;4.10;99.90
21261;DHT22;10788;47.930;9.766;2023-02-02T16:20:00;4.10;99.90
21261;DHT22;10788;47.930;9.766;2023-02-02T16:22:27;4.10;99.90
21261;DHT22;10788;47.930;9.766;2023-02-02T16:24:57;4.20;99.90
21261;DHT22;10788;47.930;9.766;2023-02-02T16:27:25;4.10;99.90
21261;DHT22;10788;47.930;9.766;2023-02-02T16:29:52;4.10;99.90
21261;DHT22;10788;47.930;9.766;2023-02-02T16:32:30;4.10;99.90
21261;DHT22;10788;47.930;9.766;2023-02-02T16:34:56;4.10;99.90
21261;DHT22;10788;47.930;9.766;2023-02-02T16:37:30;4.10;99.90
21261;DHT22;10788;47.930;9.766;2023-02-02T16:40:24;4.10;99.90
21261;DHT22;10788;47.930;9.766;2023-02-02T16:43:12;4.00;99.90
21261;DHT22;10788;47.930;9.766;2023-02-02T16:45:49;4.10;99.90
21261;DHT22;10788;47.930;9.766;2023-02-02T16:48:31;4.00;99.90
21261;DHT22;10788;47.930;9.766;2023-02-02T16:58:53;4.10;99.90
21261;DHT22;10788;47.930;9.766;2023-02-02T17:02:04;4.00;99.90
21261;DHT22;10788;47.930;9.766;2023-02-02T17:04:30;4.00;99.90
21261;DHT22;10788;47.930;9.766;2023-02-02T17:07:04;4.00;99.90
21261;DHT22;10788;47.930;9.766;2023-02-02T17:09:37;4.00;99.90
21261;DHT22;10788;47.930;9.766;2023-02-02T17:14:58;4.10;99.90
21261;DHT22;10788;47.930;9.766;2023-02-02T17:17:26;4.10;99.90
21261;DHT22;10788;47.930;9.766;2023-02-02T17:19:52;4.10;99.90
21261;DHT22;10788;47.930;9.766;2023-02-02T17:22:20;4.00;99.90
21261;DHT22;10788;47.930;9.766;2023-02-02T17:24:49;4.00;99.90
21261;DHT22;10788;47.930;9.766;2023-02-02T17:29:48;4.00;99.90
21261;DHT22;10788;47.930;9.766;2023-02-02T17:32:14;3.90;99.90
21261;DHT22;10788;47.930;9.766;2023-02-02T17:34:39;4.00;99.90
21261;DHT22;10788;47.930;9.766;2023-02-02T17:37:05;4.00;99.90
21261;DHT22;10788;47.930;9.766;2023-02-02T17:39:31;3.90;99.90
21261;DHT22;10788;47.930;9.766;2023-02-02T17:41:57;4.00;99.90
21261;DHT22;10788;47.930;9.766;2023-02-02T17:44:22;4.00;99.90
21261;DHT22;10788;47.930;9.766;2023-02-02T17:46:48;4.00;99.90
21261;DHT22;10788;47.930;9.766;2023-02-02T17:49:14;4.00;99.90
21261;DHT22;10788;47.930;9.766;2023-02-02T17:51:39;4.00;99.90
21261;DHT22;10788;47.930;9.766;2023-02-02T17:54:12;4.00;99.90
21261;DHT22;10788;47.930;9.766;2023-02-02T17:56:39;4.00;99.90
21261;DHT22;10788;47.930;9.766;2023-02-02T17:59:05;4.00;99.90
21261;DHT22;10788;47.930;9.766;2023-02-02T18:01:31;4.00;99.90
21261;DHT22;10788;47.930;9.766;2023-02-02T18:03:57;4.00;99.90
21261;DHT22;10788;47.930;9.766;2023-02-02T18:06:23;4.00;99.90
21261;DHT22;10788;47.930;9.766;2023-02-02T18:08:48;4.00;99.90
21261;DHT22;10788;47.930;9.766;2023-02-02T18:11:14;4.00;99.90
21261;DHT22;10788;47.930;9.766;2023-02-02T18:13:41;4.00;99.90
21261;DHT22;10788;47.930;9.766;2023-02-02T18:16:08;4.00;99.90
21261;DHT22;10788;47.930;9.766;2023-02-02T18:18:34;4.00;99.90
21261;DHT22;10788;47.930;9.766;2023-02-02T18:21:00;4.00;99.90
21261;DHT22;10788;47.930;9.766;2023-02-02T18:23:26;4.10;99.90
21261;DHT22;10788;47.930;9.766;2023-02-02T18:25:51;4.20;99.90
21261;DHT22;10788;47.930;9.766;2023-02-02T18:28:17;4.20;99.90
21261;DHT22;10788;47.930;9.766;2023-02-02T18:30:44;4.10;99.90
21261;DHT22;10788;47.930;9.766;2023-02-02T18:33:11;4.20;99.90
21261;DHT22;10788;47.930;9.766;2023-02-02T18:35:40;4.10;99.90
21261;DHT22;10788;47.930;9.766;2023-02-02T18:38:07;4.10;99.90
21261;DHT22;10788;47.930;9.766;2023-02-02T18:40:32;4.10;99.90
21261;DHT22;10788;47.930;9.766;2023-02-02T18:42:58;4.20;99.90
21261;DHT22;10788;47.930;9.766;2023-02-02T18:45:23;4.20;99.90
21261;DHT22;10788;47.930;9.766;2023-02-02T18:47:49;4.10;99.90
21261;DHT22;10788;47.930;9.766;2023-02-02T18:50:15;4.10;99.90
21261;DHT22;10788;47.930;9.766;2023-02-02T18:52:40;4.20;99.90
21261;DHT22;10788;47.930;9.766;2023-02-02T18:55:06;4.10;99.90
21261;DHT22;10788;47.930;9.766;2023-02-02T18:57:32;4.10;99.90
21261;DHT22;10788;47.930;9.766;2023-02-02T18:59:58;4.10;99.90
21261;DHT22;10788;47.930;9.766;2023-02-02T19:02:23;4.10;99.90
21261;DHT22;10788;47.930;9.766;2023-02-02T19:04:50;4.10;99.90
21261;DHT22;10788;47.930;9.766;2023-02-02T19:07:34;4.10;99.90
21261;DHT22;10788;47.930;9.766;2023-02-02T19:10:19;4.10;99.90
21261;DHT22;10788;47.930;9.766;2023-02-02T19:12:57;4.10;99.90